sensor_id;sensor_type;location;lat;lon;timestamp;P1;durP1;ratioP1;P2;durP2;ratioP2
52318;SDS011;38258;51.148;14.068;2022-08-01T00:01:31;4.13;;;3.10;;
52318;SDS011;38258;51.148;14.068;2022-08-01T00:03:58;4.57;;;3.78;;
52318;SDS011;38258;51.148;14.068;2022-08-01T00:06:26;4.25;;;3.40;;
52318;SDS011;38258;51.148;14.068;2022-08-01T00:08:53;5.00;;;4.03;;
52318;SDS011;38258;51.148;14.068;2022-08-01T00:11:20;3.85;;;3.33;;
52318;SDS011;38258;51.148;14.068;2022-08-01T00:13:47;4.97;;;3.88;;
52318;SDS011;38258;51.148;14.068;2022-08-01T00:16:14;4.32;;;3.40;;
52318;SDS011;38258;51.148;14.068;2022-08-01T00:18:43;4.57;;;3.42;;
52318;SDS011;38258;51.148;14.068;2022-08-01T00:21:10;4.25;;;3.65;;
52318;SDS011;38258;51.148;14.068;2022-08-01T00:23:37;4.97;;;3.72;;
52318;SDS011;38258;51.148;14.068;2022-08-01T00:26:03;4.90;;;3.60;;
52318;SDS011;38258;51.148;14.068;2022-08-01T00:28:30;4.93;;;3.78;;
52318;SDS011;38258;51.148;14.068;2022-08-01T00:30:57;4.25;;;3.33;;
52318;SDS011;38258;51.148;14.068;2022-08-01T00:33:23;4.63;;;3.67;;
52318;SDS011;38258;51.148;14.068;2022-08-01T00:35:51;5.10;;;3.67;;
52318;SDS011;38258;51.148;14.068;2022-08-01T00:38:18;5.32;;;3.45;;
52318;SDS011;38258;51.148;14.068;2022-08-01T00:40:45;6.38;;;3.85;;
52318;SDS011;38258;51.148;14.068;2022-08-01T00:43:12;5.30;;;3.85;;
52318;SDS011;38258;51.148;14.068;2022-08-01T00:45:38;5.43;;;3.80;;
52318;SDS011;38258;51.148;14.068;2022-08-01T00:48:05;6.97;;;3.85;;
52318;SDS011;38258;51.148;14.068;2022-08-01T00:50:32;5.47;;;3.80;;
52318;SDS011;38258;51.148;14.068;2022-08-01T00:53:00;5.65;;;4.35;;
52318;SDS011;38258;51.148;14.068;2022-08-01T00:55:28;4.55;;;4.00;;
52318;SDS011;38258;51.148;14.068;2022-08-01T00:57:55;5.03;;;4.13;;
52318;SDS011;38258;51.148;14.068;2022-08-01T01:00:23;4.28;;;3.60;;
52318;SDS011;38258;51.148;14.068;2022-08-01T01:02:50;6.28;;;3.90;;
52318;SDS011;38258;51.148;14.068;2022-08-01T01:05:16;4.28;;;3.85;;
52318;SDS011;38258;51.148;14.068;2022-08-01T01:07:45;6.10;;;4.32;;
52318;SDS011;38258;51.148;14.068;2022-08-01T01:10:21;5.53;;;4.03;;
52318;SDS011;38258;51.148;14.068;2022-08-01T01:12:57;7.55;;;4.30;;
52318;SDS011;38258;51.148;14.068;2022-08-01T01:15:29;5.43;;;4.20;;
52318;SDS011;38258;51.148;14.068;2022-08-01T01:18:02;5.25;;;4.10;;
52318;SDS011;38258;51.148;14.068;2022-08-01T01:20:31;6.13;;;3.92;;
52318;SDS011;38258;51.148;14.068;2022-08-01T01:26:10;7.00;;;4.20;;
52318;SDS011;38258;51.148;14.068;2022-08-01T01:28:58;5.78;;;4.05;;
52318;SDS011;38258;51.148;14.068;2022-08-01T01:31:31;6.72;;;4.30;;
52318;SDS011;38258;51.148;14.068;2022-08-01T01:34:00;6.15;;;4.75;;
52318;SDS011;38258;51.148;14.068;2022-08-01T01:36:30;5.50;;;4.38;;
52318;SDS011;38258;51.148;14.068;2022-08-01T01:38:58;6.63;;;4.45;;
52318;SDS011;38258;51.148;14.068;2022-08-01T01:41:27;5.68;;;4.32;;
52318;SDS011;38258;51.148;14.068;2022-08-01T01:43:56;6.43;;;4.45;;
52318;SDS011;38258;51.148;14.068;2022-08-01T01:46:25;5.68;;;4.30;;
52318;SDS011;38258;51.148;14.068;2022-08-01T01:48:55;5.90;;;4.03;;
52318;SDS011;38258;51.148;14.068;2022-08-01T01:51:24;6.65;;;4.38;;
52318;SDS011;38258;51.148;14.068;2022-08-01T01:53:52;5.60;;;4.10;;
52318;SDS011;38258;51.148;14.068;2022-08-01T01:56:20;5.32;;;4.15;;
52318;SDS011;38258;51.148;14.068;2022-08-01T01:58:49;5.88;;;4.40;;
52318;SDS011;38258;51.148;14.068;2022-08-01T02:01:19;5.32;;;4.32;;
52318;SDS011;38258;51.148;14.068;2022-08-01T02:03:49;5.78;;;4.72;;
52318;SDS011;38258;51.148;14.068;2022-08-01T02:06:19;6.72;;;4.85;;
52318;SDS011;38258;51.148;14.068;2022-08-01T02:08:48;5.70;;;4.63;;
52318;SDS011;38258;51.148;14.068;2022-08-01T02:11:15;5.07;;;4.20;;
52318;SDS011;38258;51.148;14.068;2022-08-01T02:13:46;6.22;;;4.47;;
52318;SDS011;38258;51.148;14.068;2022-08-01T02:16:17;6.03;;;4.60;;
52318;SDS011;38258;51.148;14.068;2022-08-01T02:18:46;6.85;;;4.53;;
52318;SDS011;38258;51.148;14.068;2022-08-01T02:21:16;6.07;;;4.32;;
52318;SDS011;38258;51.148;14.068;2022-08-01T02:23:47;6.10;;;4.65;;
52318;SDS011;38258;51.148;14.068;2022-08-01T02:26:15;6.90;;;4.70;;
52318;SDS011;38258;51.148;14.068;2022-08-01T02:28:46;7.22;;;4.82;;
52318;SDS011;38258;51.148;14.068;2022-08-01T02:31:17;6.63;;;4.60;;
52318;SDS011;38258;51.148;14.068;2022-08-01T02:33:48;7.68;;;4.45;;
52318;SDS011;38258;51.148;14.068;2022-08-01T02:36:25;6.45;;;5.00;;
52318;SDS011;38258;51.148;14.068;2022-08-01T02:38:53;7.90;;;4.47;;
52318;SDS011;38258;51.148;14.068;2022-08-01T02:41:22;5.22;;;4.20;;
52318;SDS011;38258;51.148;14.068;2022-08-01T02:43:52;5.60;;;4.25;;
52318;SDS011;38258;51.148;14.068;2022-08-01T02:46:24;5.95;;;4.63;;
52318;SDS011;38258;51.148;14.068;2022-08-01T02:48:54;5.63;;;4.50;;
52318;SDS011;38258;51.148;14.068;2022-08-01T02:51:26;5.70;;;4.47;;
52318;SDS011;38258;51.148;14.068;2022-08-01T02:53:54;5.90;;;4.38;;
52318;SDS011;38258;51.148;14.068;2022-08-01T02:56:22;5.65;;;4.72;;
52318;SDS011;38258;51.148;14.068;2022-08-01T02:59:00;6.18;;;4.75;;
52318;SDS011;38258;51.148;14.068;2022-08-01T03:01:31;5.60;;;4.65;;
52318;SDS011;38258;51.148;14.068;2022-08-01T03:04:00;5.75;;;4.63;;
52318;SDS011;38258;51.148;14.068;2022-08-01T03:06:28;5.88;;;4.45;;
52318;SDS011;38258;51.148;14.068;2022-08-01T03:08:56;6.22;;;4.90;;
52318;SDS011;38258;51.148;14.068;2022-08-01T03:11:25;6.28;;;4.65;;
52318;SDS011;38258;51.148;14.068;2022-08-01T03:13:53;5.10;;;4.28;;
52318;SDS011;38258;51.148;14.068;2022-08-01T03:16:25;5.95;;;4.85;;
52318;SDS011;38258;51.148;14.068;2022-08-01T03:18:54;6.38;;;4.72;;
52318;SDS011;38258;51.148;14.068;2022-08-01T03:21:23;6.22;;;4.45;;
52318;SDS011;38258;51.148;14.068;2022-08-01T03:23:54;7.75;;;4.40;;
52318;SDS011;38258;51.148;14.068;2022-08-01T03:26:24;5.30;;;4.25;;
52318;SDS011;38258;51.148;14.068;2022-08-01T03:28:55;4.90;;;4.15;;
52318;SDS011;38258;51.148;14.068;2022-08-01T03:31:25;5.95;;;4.65;;
52318;SDS011;38258;51.148;14.068;2022-08-01T03:33:52;5.38;;;4.10;;
52318;SDS011;38258;51.148;14.068;2022-08-01T03:36:20;6.65;;;4.50;;
52318;SDS011;38258;51.148;14.068;2022-08-01T03:38:51;6.25;;;4.47;;
52318;SDS011;38258;51.148;14.068;2022-08-01T03:41:22;5.10;;;4.43;;
52318;SDS011;38258;51.148;14.068;2022-08-01T03:43:54;5.43;;;4.03;;
52318;SDS011;38258;51.148;14.068;2022-08-01T03:46:26;5.93;;;4.85;;
52318;SDS011;38258;51.148;14.068;2022-08-01T03:48:57;5.57;;;4.65;;
52318;SDS011;38258;51.148;14.068;2022-08-01T03:51:27;6.00;;;4.82;;
52318;SDS011;38258;51.148;14.068;2022-08-01T03:53:58;6.32;;;4.90;;
52318;SDS011;38258;51.148;14.068;2022-08-01T03:56:26;5.97;;;4.72;;
52318;SDS011;38258;51.148;14.068;2022-08-01T03:58:57;5.63;;;4.35;;
52318;SDS011;38258;51.148;14.068;2022-08-01T04:01:25;5.28;;;4.32;;
52318;SDS011;38258;51.148;14.068;2022-08-01T04:03:54;7.38;;;4.82;;
52318;SDS011;38258;51.148;14.068;2022-08-01T04:06:21;7.97;;;4.78;;
52318;SDS011;38258;51.148;14.068;2022-08-01T04:08:48;5.35;;;4.40;;
52318;SDS011;38258;51.148;14.068;2022-08-01T04:11:23;7.45;;;4.93;;
52318;SDS011;38258;51.148;14.068;2022-08-01T04:13:51;5.40;;;4.65;;
52318;SDS011;38258;51.148;14.068;2022-08-01T04:16:18;5.75;;;4.50;;
52318;SDS011;38258;51.148;14.068;2022-08-01T04:18:45;6.70;;;4.75;;
52318;SDS011;38258;51.148;14.068;2022-08-01T04:21:13;5.40;;;4.38;;
52318;SDS011;38258;51.148;14.068;2022-08-01T04:23:41;6.07;;;4.60;;
52318;SDS011;38258;51.148;14.068;2022-08-01T04:26:09;5.65;;;4.85;;
52318;SDS011;38258;51.148;14.068;2022-08-01T04:28:40;7.63;;;5.70;;
52318;SDS011;38258;51.148;14.068;2022-08-01T04:31:09;7.93;;;5.05;;
52318;SDS011;38258;51.148;14.068;2022-08-01T04:33:38;5.55;;;4.50;;
52318;SDS011;38258;51.148;14.068;2022-08-01T04:36:09;6.65;;;4.85;;
52318;SDS011;38258;51.148;14.068;2022-08-01T04:38:37;5.57;;;4.43;;
52318;SDS011;38258;51.148;14.068;2022-08-01T04:41:06;5.93;;;4.38;;
52318;SDS011;38258;51.148;14.068;2022-08-01T04:43:36;5.75;;;4.35;;
52318;SDS011;38258;51.148;14.068;2022-08-01T04:46:04;6.90;;;4.68;;
52318;SDS011;38258;51.148;14.068;2022-08-01T04:48:32;6.40;;;4.60;;
52318;SDS011;38258;51.148;14.068;2022-08-01T04:51:00;6.22;;;4.32;;
52318;SDS011;38258;51.148;14.068;2022-08-01T04:53:27;6.13;;;4.85;;
52318;SDS011;38258;51.148;14.068;2022-08-01T04:55:57;5.30;;;4.50;;
52318;SDS011;38258;51.148;14.068;2022-08-01T04:58:24;6.68;;;4.70;;
52318;SDS011;38258;51.148;14.068;2022-08-01T05:00:51;6.00;;;4.78;;
52318;SDS011;38258;51.148;14.068;2022-08-01T05:03:19;5.88;;;4.97;;
52318;SDS011;38258;51.148;14.068;2022-08-01T05:05:46;5.15;;;4.20;;
52318;SDS011;38258;51.148;14.068;2022-08-01T05:08:13;6.63;;;4.40;;
52318;SDS011;38258;51.148;14.068;2022-08-01T05:10:41;7.65;;;4.30;;
52318;SDS011;38258;51.148;14.068;2022-08-01T05:13:08;6.68;;;4.47;;
52318;SDS011;38258;51.148;14.068;2022-08-01T05:15:36;5.03;;;4.20;;
52318;SDS011;38258;51.148;14.068;2022-08-01T05:18:03;5.50;;;4.63;;
52318;SDS011;38258;51.148;14.068;2022-08-01T05:20:31;4.95;;;4.07;;
52318;SDS011;38258;51.148;14.068;2022-08-01T05:22:58;5.57;;;4.32;;
52318;SDS011;38258;51.148;14.068;2022-08-01T05:25:25;5.38;;;4.40;;
52318;SDS011;38258;51.148;14.068;2022-08-01T05:27:53;5.20;;;4.25;;
52318;SDS011;38258;51.148;14.068;2022-08-01T05:30:20;5.60;;;4.15;;
52318;SDS011;38258;51.148;14.068;2022-08-01T05:32:47;5.47;;;4.32;;
52318;SDS011;38258;51.148;14.068;2022-08-01T05:35:14;7.15;;;4.30;;
52318;SDS011;38258;51.148;14.068;2022-08-01T05:37:42;6.20;;;4.32;;
52318;SDS011;38258;51.148;14.068;2022-08-01T05:40:09;5.72;;;4.40;;
52318;SDS011;38258;51.148;14.068;2022-08-01T05:42:36;6.03;;;3.85;;
52318;SDS011;38258;51.148;14.068;2022-08-01T05:45:03;5.97;;;4.53;;
52318;SDS011;38258;51.148;14.068;2022-08-01T05:47:31;5.07;;;3.72;;
52318;SDS011;38258;51.148;14.068;2022-08-01T05:49:58;5.07;;;4.05;;
52318;SDS011;38258;51.148;14.068;2022-08-01T05:52:25;4.93;;;3.25;;
52318;SDS011;38258;51.148;14.068;2022-08-01T05:54:53;6.35;;;4.20;;
52318;SDS011;38258;51.148;14.068;2022-08-01T05:57:19;5.75;;;4.15;;
52318;SDS011;38258;51.148;14.068;2022-08-01T05:59:46;4.63;;;3.53;;
52318;SDS011;38258;51.148;14.068;2022-08-01T06:02:13;5.20;;;3.35;;
52318;SDS011;38258;51.148;14.068;2022-08-01T06:04:40;5.07;;;3.72;;
52318;SDS011;38258;51.148;14.068;2022-08-01T06:07:06;4.53;;;3.67;;
52318;SDS011;38258;51.148;14.068;2022-08-01T06:09:33;4.53;;;3.53;;
52318;SDS011;38258;51.148;14.068;2022-08-01T06:12:01;6.38;;;4.25;;
52318;SDS011;38258;51.148;14.068;2022-08-01T06:14:28;4.78;;;3.72;;
52318;SDS011;38258;51.148;14.068;2022-08-01T06:16:55;5.72;;;3.50;;
52318;SDS011;38258;51.148;14.068;2022-08-01T06:19:25;4.70;;;3.42;;
52318;SDS011;38258;51.148;14.068;2022-08-01T06:21:52;4.85;;;3.70;;
52318;SDS011;38258;51.148;14.068;2022-08-01T06:24:19;4.85;;;3.17;;
52318;SDS011;38258;51.148;14.068;2022-08-01T06:26:47;5.35;;;3.92;;
52318;SDS011;38258;51.148;14.068;2022-08-01T06:29:16;4.80;;;3.25;;
52318;SDS011;38258;51.148;14.068;2022-08-01T06:31:42;4.60;;;2.90;;
52318;SDS011;38258;51.148;14.068;2022-08-01T06:34:09;5.00;;;3.30;;
52318;SDS011;38258;51.148;14.068;2022-08-01T06:36:36;3.67;;;2.97;;
52318;SDS011;38258;51.148;14.068;2022-08-01T06:39:02;4.15;;;2.88;;
52318;SDS011;38258;51.148;14.068;2022-08-01T06:41:29;4.13;;;3.20;;
52318;SDS011;38258;51.148;14.068;2022-08-01T06:43:56;4.15;;;2.92;;
52318;SDS011;38258;51.148;14.068;2022-08-01T06:46:26;4.30;;;3.20;;
52318;SDS011;38258;51.148;14.068;2022-08-01T06:48:53;4.55;;;3.42;;
52318;SDS011;38258;51.148;14.068;2022-08-01T06:51:19;3.75;;;2.72;;
52318;SDS011;38258;51.148;14.068;2022-08-01T06:53:46;4.40;;;3.03;;
52318;SDS011;38258;51.148;14.068;2022-08-01T06:56:13;3.70;;;2.65;;
52318;SDS011;38258;51.148;14.068;2022-08-01T06:58:39;3.53;;;2.65;;
52318;SDS011;38258;51.148;14.068;2022-08-01T07:01:06;4.00;;;2.83;;
52318;SDS011;38258;51.148;14.068;2022-08-01T07:03:34;3.95;;;2.80;;
52318;SDS011;38258;51.148;14.068;2022-08-01T07:06:02;5.40;;;3.20;;
52318;SDS011;38258;51.148;14.068;2022-08-01T07:08:29;4.15;;;3.20;;
52318;SDS011;38258;51.148;14.068;2022-08-01T07:10:56;4.70;;;3.38;;
52318;SDS011;38258;51.148;14.068;2022-08-01T07:13:25;4.75;;;3.53;;
52318;SDS011;38258;51.148;14.068;2022-08-01T07:15:51;4.97;;;3.55;;
52318;SDS011;38258;51.148;14.068;2022-08-01T07:18:18;6.32;;;3.40;;
52318;SDS011;38258;51.148;14.068;2022-08-01T07:20:46;5.38;;;3.88;;
52318;SDS011;38258;51.148;14.068;2022-08-01T07:23:13;5.65;;;3.95;;
52318;SDS011;38258;51.148;14.068;2022-08-01T07:25:40;5.80;;;4.10;;
52318;SDS011;38258;51.148;14.068;2022-08-01T07:28:07;5.65;;;4.05;;
52318;SDS011;38258;51.148;14.068;2022-08-01T07:30:33;5.50;;;3.97;;
52318;SDS011;38258;51.148;14.068;2022-08-01T07:33:01;4.75;;;3.47;;
52318;SDS011;38258;51.148;14.068;2022-08-01T07:35:27;5.03;;;3.70;;
52318;SDS011;38258;51.148;14.068;2022-08-01T07:37:56;5.03;;;3.30;;
52318;SDS011;38258;51.148;14.068;2022-08-01T07:40:22;4.53;;;3.13;;
52318;SDS011;38258;51.148;14.068;2022-08-01T07:42:49;4.40;;;3.25;;
52318;SDS011;38258;51.148;14.068;2022-08-01T07:45:16;5.07;;;3.25;;
52318;SDS011;38258;51.148;14.068;2022-08-01T07:47:42;4.60;;;3.08;;
52318;SDS011;38258;51.148;14.068;2022-08-01T07:50:09;3.83;;;2.78;;
52318;SDS011;38258;51.148;14.068;2022-08-01T07:52:37;4.00;;;2.63;;
52318;SDS011;38258;51.148;14.068;2022-08-01T07:55:07;5.90;;;3.30;;
52318;SDS011;38258;51.148;14.068;2022-08-01T07:57:34;3.80;;;2.60;;
52318;SDS011;38258;51.148;14.068;2022-08-01T08:00:02;4.43;;;2.95;;
52318;SDS011;38258;51.148;14.068;2022-08-01T08:02:29;3.97;;;2.55;;
52318;SDS011;38258;51.148;14.068;2022-08-01T08:04:56;4.80;;;2.50;;
52318;SDS011;38258;51.148;14.068;2022-08-01T08:07:23;4.07;;;2.70;;
52318;SDS011;38258;51.148;14.068;2022-08-01T08:09:50;5.28;;;2.97;;
52318;SDS011;38258;51.148;14.068;2022-08-01T08:12:18;5.88;;;2.88;;
52318;SDS011;38258;51.148;14.068;2022-08-01T08:14:45;4.13;;;2.60;;
52318;SDS011;38258;51.148;14.068;2022-08-01T08:17:11;4.90;;;3.10;;
52318;SDS011;38258;51.148;14.068;2022-08-01T08:19:38;4.90;;;3.20;;
52318;SDS011;38258;51.148;14.068;2022-08-01T08:22:05;5.03;;;3.00;;
52318;SDS011;38258;51.148;14.068;2022-08-01T08:25:03;3.63;;;2.42;;
52318;SDS011;38258;51.148;14.068;2022-08-01T08:27:38;4.00;;;2.65;;
52318;SDS011;38258;51.148;14.068;2022-08-01T08:30:05;3.10;;;2.30;;
52318;SDS011;38258;51.148;14.068;2022-08-01T08:32:33;2.88;;;2.13;;
52318;SDS011;38258;51.148;14.068;2022-08-01T08:35:00;3.20;;;2.10;;
52318;SDS011;38258;51.148;14.068;2022-08-01T08:37:27;2.97;;;2.13;;
52318;SDS011;38258;51.148;14.068;2022-08-01T08:39:54;3.55;;;2.28;;
52318;SDS011;38258;51.148;14.068;2022-08-01T08:42:21;3.67;;;1.98;;
52318;SDS011;38258;51.148;14.068;2022-08-01T08:45:01;4.97;;;2.35;;
52318;SDS011;38258;51.148;14.068;2022-08-01T08:47:29;3.58;;;2.20;;
52318;SDS011;38258;51.148;14.068;2022-08-01T08:50:00;3.40;;;2.15;;
52318;SDS011;38258;51.148;14.068;2022-08-01T08:52:29;4.35;;;2.47;;
52318;SDS011;38258;51.148;14.068;2022-08-01T08:54:57;3.42;;;2.15;;
52318;SDS011;38258;51.148;14.068;2022-08-01T08:57:24;3.65;;;2.50;;
52318;SDS011;38258;51.148;14.068;2022-08-01T08:59:51;3.80;;;2.22;;
52318;SDS011;38258;51.148;14.068;2022-08-01T09:02:21;3.25;;;1.95;;
52318;SDS011;38258;51.148;14.068;2022-08-01T09:04:48;3.13;;;2.30;;
52318;SDS011;38258;51.148;14.068;2022-08-01T09:07:16;3.30;;;2.30;;
52318;SDS011;38258;51.148;14.068;2022-08-01T09:09:43;3.00;;;2.03;;
52318;SDS011;38258;51.148;14.068;2022-08-01T09:12:09;3.72;;;2.00;;
52318;SDS011;38258;51.148;14.068;2022-08-01T09:14:43;4.95;;;2.53;;
52318;SDS011;38258;51.148;14.068;2022-08-01T09:17:11;5.13;;;2.70;;
52318;SDS011;38258;51.148;14.068;2022-08-01T09:19:40;4.30;;;2.58;;
52318;SDS011;38258;51.148;14.068;2022-08-01T09:22:09;3.95;;;2.80;;
52318;SDS011;38258;51.148;14.068;2022-08-01T09:24:37;4.03;;;2.80;;
52318;SDS011;38258;51.148;14.068;2022-08-01T09:27:14;2.97;;;2.40;;
52318;SDS011;38258;51.148;14.068;2022-08-01T09:29:42;3.80;;;2.47;;
52318;SDS011;38258;51.148;14.068;2022-08-01T09:32:10;3.80;;;2.60;;
52318;SDS011;38258;51.148;14.068;2022-08-01T09:34:37;3.00;;;2.50;;
52318;SDS011;38258;51.148;14.068;2022-08-01T09:37:05;3.22;;;2.60;;
52318;SDS011;38258;51.148;14.068;2022-08-01T09:39:32;3.15;;;2.40;;
52318;SDS011;38258;51.148;14.068;2022-08-01T09:42:19;3.83;;;2.60;;
52318;SDS011;38258;51.148;14.068;2022-08-01T09:44:49;4.07;;;2.85;;
52318;SDS011;38258;51.148;14.068;2022-08-01T09:47:16;3.38;;;2.47;;
52318;SDS011;38258;51.148;14.068;2022-08-01T09:49:46;3.17;;;2.25;;
52318;SDS011;38258;51.148;14.068;2022-08-01T09:52:22;3.00;;;2.22;;
52318;SDS011;38258;51.148;14.068;2022-08-01T09:54:52;3.38;;;2.35;;
52318;SDS011;38258;51.148;14.068;2022-08-01T09:57:20;2.60;;;2.03;;
52318;SDS011;38258;51.148;14.068;2022-08-01T09:59:48;3.60;;;2.30;;
52318;SDS011;38258;51.148;14.068;2022-08-01T10:02:26;3.53;;;2.30;;
52318;SDS011;38258;51.148;14.068;2022-08-01T10:04:55;3.53;;;2.22;;
52318;SDS011;38258;51.148;14.068;2022-08-01T10:07:23;2.58;;;1.90;;
52318;SDS011;38258;51.148;14.068;2022-08-01T10:09:50;2.50;;;1.98;;
52318;SDS011;38258;51.148;14.068;2022-08-01T10:12:17;2.20;;;1.77;;
52318;SDS011;38258;51.148;14.068;2022-08-01T10:14:46;2.67;;;1.98;;
52318;SDS011;38258;51.148;14.068;2022-08-01T10:17:14;2.40;;;2.00;;
52318;SDS011;38258;51.148;14.068;2022-08-01T10:19:43;3.08;;;1.95;;
52318;SDS011;38258;51.148;14.068;2022-08-01T10:22:10;2.50;;;2.10;;
52318;SDS011;38258;51.148;14.068;2022-08-01T10:24:43;2.63;;;2.10;;
52318;SDS011;38258;51.148;14.068;2022-08-01T10:27:11;2.38;;;2.03;;
52318;SDS011;38258;51.148;14.068;2022-08-01T10:29:42;3.50;;;2.25;;
52318;SDS011;38258;51.148;14.068;2022-08-01T10:32:22;2.83;;;2.42;;
52318;SDS011;38258;51.148;14.068;2022-08-01T10:34:49;3.35;;;2.53;;
52318;SDS011;38258;51.148;14.068;2022-08-01T10:37:17;2.88;;;2.58;;
52318;SDS011;38258;51.148;14.068;2022-08-01T10:39:45;3.33;;;2.50;;
52318;SDS011;38258;51.148;14.068;2022-08-01T10:42:12;3.65;;;2.55;;
52318;SDS011;38258;51.148;14.068;2022-08-01T10:44:39;3.88;;;2.75;;
52318;SDS011;38258;51.148;14.068;2022-08-01T10:47:08;3.70;;;2.70;;
52318;SDS011;38258;51.148;14.068;2022-08-01T10:49:39;4.45;;;2.95;;
52318;SDS011;38258;51.148;14.068;2022-08-01T10:52:13;3.60;;;3.10;;
52318;SDS011;38258;51.148;14.068;2022-08-01T10:54:41;3.03;;;2.72;;
52318;SDS011;38258;51.148;14.068;2022-08-01T10:57:09;4.45;;;3.60;;
52318;SDS011;38258;51.148;14.068;2022-08-01T10:59:47;5.30;;;3.30;;
52318;SDS011;38258;51.148;14.068;2022-08-01T11:02:28;4.03;;;3.65;;
52318;SDS011;38258;51.148;14.068;2022-08-01T11:04:57;5.43;;;4.30;;
52318;SDS011;38258;51.148;14.068;2022-08-01T11:07:37;4.55;;;3.47;;
52318;SDS011;38258;51.148;14.068;2022-08-01T11:10:10;4.00;;;3.17;;
52318;SDS011;38258;51.148;14.068;2022-08-01T11:12:47;4.05;;;3.65;;
52318;SDS011;38258;51.148;14.068;2022-08-01T11:15:18;3.70;;;3.30;;
52318;SDS011;38258;51.148;14.068;2022-08-01T11:17:54;3.55;;;3.05;;
52318;SDS011;38258;51.148;14.068;2022-08-01T11:20:22;2.85;;;2.55;;
52318;SDS011;38258;51.148;14.068;2022-08-01T11:31:39;3.08;;;2.50;;
52318;SDS011;38258;51.148;14.068;2022-08-01T11:34:06;2.85;;;2.50;;
52318;SDS011;38258;51.148;14.068;2022-08-01T11:36:32;3.38;;;2.25;;
52318;SDS011;38258;51.148;14.068;2022-08-01T11:44:23;2.05;;;1.40;;
52318;SDS011;38258;51.148;14.068;2022-08-01T11:46:59;2.38;;;1.70;;
52318;SDS011;38258;51.148;14.068;2022-08-01T11:49:29;2.00;;;1.27;;
52318;SDS011;38258;51.148;14.068;2022-08-01T11:52:16;1.63;;;1.20;;
52318;SDS011;38258;51.148;14.068;2022-08-01T11:54:45;1.70;;;1.35;;
52318;SDS011;38258;51.148;14.068;2022-08-01T11:57:14;2.25;;;1.38;;
52318;SDS011;38258;51.148;14.068;2022-08-01T11:59:45;1.95;;;1.40;;
52318;SDS011;38258;51.148;14.068;2022-08-01T12:02:15;2.97;;;1.75;;
52318;SDS011;38258;51.148;14.068;2022-08-01T12:04:44;1.48;;;1.20;;
52318;SDS011;38258;51.148;14.068;2022-08-01T12:07:12;2.22;;;1.30;;
52318;SDS011;38258;51.148;14.068;2022-08-01T12:09:39;2.42;;;1.40;;
52318;SDS011;38258;51.148;14.068;2022-08-01T12:12:06;1.88;;;1.23;;
52318;SDS011;38258;51.148;14.068;2022-08-01T12:14:33;0.90;;;0.85;;
52318;SDS011;38258;51.148;14.068;2022-08-01T12:17:01;1.05;;;1.00;;
52318;SDS011;38258;51.148;14.068;2022-08-01T12:19:28;0.88;;;0.75;;
52318;SDS011;38258;51.148;14.068;2022-08-01T12:22:08;2.08;;;1.40;;
52318;SDS011;38258;51.148;14.068;2022-08-01T12:24:37;3.92;;;2.00;;
52318;SDS011;38258;51.148;14.068;2022-08-01T12:27:07;1.15;;;0.80;;
52318;SDS011;38258;51.148;14.068;2022-08-01T12:29:37;1.00;;;0.90;;
52318;SDS011;38258;51.148;14.068;2022-08-01T12:34:51;1.20;;;1.10;;
52318;SDS011;38258;51.148;14.068;2022-08-01T12:37:19;2.97;;;1.83;;
52318;SDS011;38258;51.148;14.068;2022-08-01T12:39:46;2.15;;;1.30;;
52318;SDS011;38258;51.148;14.068;2022-08-01T12:42:14;1.92;;;1.30;;
52318;SDS011;38258;51.148;14.068;2022-08-01T12:44:41;1.45;;;1.20;;
52318;SDS011;38258;51.148;14.068;2022-08-01T12:47:10;1.80;;;1.25;;
52318;SDS011;38258;51.148;14.068;2022-08-01T12:49:41;1.63;;;1.20;;
52318;SDS011;38258;51.148;14.068;2022-08-01T12:52:09;2.60;;;1.75;;
52318;SDS011;38258;51.148;14.068;2022-08-01T12:57:33;1.70;;;1.00;;
52318;SDS011;38258;51.148;14.068;2022-08-01T13:00:08;2.10;;;1.17;;
52318;SDS011;38258;51.148;14.068;2022-08-01T13:02:41;1.20;;;1.10;;
52318;SDS011;38258;51.148;14.068;2022-08-01T13:05:10;1.50;;;1.30;;
52318;SDS011;38258;51.148;14.068;2022-08-01T13:07:38;3.30;;;1.55;;
52318;SDS011;38258;51.148;14.068;2022-08-01T13:10:07;2.20;;;1.30;;
52318;SDS011;38258;51.148;14.068;2022-08-01T13:12:35;1.50;;;1.20;;
52318;SDS011;38258;51.148;14.068;2022-08-01T13:15:18;1.50;;;1.20;;
52318;SDS011;38258;51.148;14.068;2022-08-01T13:17:49;1.58;;;1.20;;
52318;SDS011;38258;51.148;14.068;2022-08-01T13:20:32;1.98;;;1.25;;
52318;SDS011;38258;51.148;14.068;2022-08-01T13:25:46;1.98;;;1.45;;
52318;SDS011;38258;51.148;14.068;2022-08-01T13:28:15;2.92;;;1.35;;
52318;SDS011;38258;51.148;14.068;2022-08-01T13:30:50;1.15;;;1.00;;
52318;SDS011;38258;51.148;14.068;2022-08-01T13:33:21;1.13;;;1.00;;
52318;SDS011;38258;51.148;14.068;2022-08-01T13:35:50;2.08;;;1.30;;
52318;SDS011;38258;51.148;14.068;2022-08-01T13:38:18;1.50;;;1.23;;
52318;SDS011;38258;51.148;14.068;2022-08-01T13:40:45;1.50;;;1.30;;
52318;SDS011;38258;51.148;14.068;2022-08-01T13:43:12;1.55;;;1.30;;
52318;SDS011;38258;51.148;14.068;2022-08-01T13:45:39;1.80;;;1.10;;
52318;SDS011;38258;51.148;14.068;2022-08-01T13:48:06;1.30;;;1.20;;
52318;SDS011;38258;51.148;14.068;2022-08-01T13:50:33;1.95;;;1.27;;
52318;SDS011;38258;51.148;14.068;2022-08-01T13:53:02;2.00;;;1.30;;
52318;SDS011;38258;51.148;14.068;2022-08-01T13:55:29;1.30;;;1.20;;
52318;SDS011;38258;51.148;14.068;2022-08-01T13:57:55;1.10;;;1.00;;
52318;SDS011;38258;51.148;14.068;2022-08-01T14:00:22;1.00;;;0.90;;
52318;SDS011;38258;51.148;14.068;2022-08-01T14:02:49;1.45;;;1.00;;
52318;SDS011;38258;51.148;14.068;2022-08-01T14:05:16;1.40;;;1.10;;
52318;SDS011;38258;51.148;14.068;2022-08-01T14:07:43;1.35;;;1.10;;
52318;SDS011;38258;51.148;14.068;2022-08-01T14:10:12;1.33;;;1.23;;
52318;SDS011;38258;51.148;14.068;2022-08-01T14:12:38;1.45;;;1.15;;
52318;SDS011;38258;51.148;14.068;2022-08-01T14:15:06;1.40;;;1.10;;
52318;SDS011;38258;51.148;14.068;2022-08-01T14:17:34;1.52;;;1.30;;
52318;SDS011;38258;51.148;14.068;2022-08-01T14:20:01;1.52;;;1.17;;
52318;SDS011;38258;51.148;14.068;2022-08-01T14:22:29;1.45;;;1.08;;
52318;SDS011;38258;51.148;14.068;2022-08-01T14:24:56;1.20;;;1.10;;
52318;SDS011;38258;51.148;14.068;2022-08-01T14:27:25;1.48;;;1.20;;
52318;SDS011;38258;51.148;14.068;2022-08-01T14:29:55;1.40;;;1.10;;
52318;SDS011;38258;51.148;14.068;2022-08-01T14:32:22;1.70;;;1.20;;
52318;SDS011;38258;51.148;14.068;2022-08-01T14:34:49;1.83;;;1.40;;
52318;SDS011;38258;51.148;14.068;2022-08-01T14:37:15;1.50;;;1.10;;
52318;SDS011;38258;51.148;14.068;2022-08-01T14:39:42;2.00;;;1.30;;
52318;SDS011;38258;51.148;14.068;2022-08-01T14:42:09;1.70;;;1.40;;
52318;SDS011;38258;51.148;14.068;2022-08-01T14:44:38;2.25;;;1.40;;
52318;SDS011;38258;51.148;14.068;2022-08-01T14:47:04;1.25;;;1.10;;
52318;SDS011;38258;51.148;14.068;2022-08-01T14:49:32;1.30;;;1.13;;
52318;SDS011;38258;51.148;14.068;2022-08-01T14:51:59;1.40;;;1.30;;
52318;SDS011;38258;51.148;14.068;2022-08-01T14:54:25;1.80;;;1.33;;
52318;SDS011;38258;51.148;14.068;2022-08-01T14:56:52;4.03;;;1.27;;
52318;SDS011;38258;51.148;14.068;2022-08-01T14:59:19;1.70;;;1.40;;
52318;SDS011;38258;51.148;14.068;2022-08-01T15:01:47;2.50;;;1.30;;
52318;SDS011;38258;51.148;14.068;2022-08-01T15:04:14;1.70;;;1.40;;
52318;SDS011;38258;51.148;14.068;2022-08-01T15:06:42;1.65;;;1.30;;
52318;SDS011;38258;51.148;14.068;2022-08-01T15:09:09;1.30;;;1.15;;